sensor_id;sensor_type;location;lat;lon;timestamp;pressure;altitude;pressure_sealevel;temperature;humidity
47785;BME280;35233;55.686;37.848;2023-02-16T00:01:22;100671.13;;;8.37;41.75
47785;BME280;35233;55.686;37.848;2023-02-16T00:03:48;100663.25;;;8.43;42.30
47785;BME280;35233;55.686;37.848;2023-02-16T00:06:14;100664.09;;;8.37;42.12
47785;BME280;35233;55.686;37.848;2023-02-16T00:08:49;100664.13;;;8.31;42.48
47785;BME280;35233;55.686;37.848;2023-02-16T00:11:18;100672.91;;;8.41;42.14
47785;BME280;35233;55.686;37.848;2023-02-16T00:14:17;100666.78;;;8.44;41.99
47785;BME280;35233;55.686;37.848;2023-02-16T00:16:47;100659.75;;;8.44;42.27
47785;BME280;35233;55.686;37.848;2023-02-16T00:21:47;100660.63;;;8.40;42.04
47785;BME280;35233;55.686;37.848;2023-02-16T00:24:13;100662.38;;;8.33;42.29
47785;BME280;35233;55.686;37.848;2023-02-16T00:26:40;100654.47;;;8.38;42.42
47785;BME280;35233;55.686;37.848;2023-02-16T00:29:09;100657.13;;;8.35;42.12
47785;BME280;35233;55.686;37.848;2023-02-16T00:31:35;100654.47;;;8.38;42.11
47785;BME280;35233;55.686;37.848;2023-02-16T00:34:25;100650.09;;;8.35;42.30
47785;BME280;35233;55.686;37.848;2023-02-16T00:36:51;100661.50;;;8.36;42.35
47785;BME280;35233;55.686;37.848;2023-02-16T00:39:16;100630.78;;;8.29;41.87
47785;BME280;35233;55.686;37.848;2023-02-16T00:41:42;100650.06;;;8.48;41.93
47785;BME280;35233;55.686;37.848;2023-02-16T00:44:42;100655.34;;;8.35;42.42
47785;BME280;35233;55.686;37.848;2023-02-16T00:47:35;100650.94;;;8.37;42.18
47785;BME280;35233;55.686;37.848;2023-02-16T00:50:05;100659.75;;;8.35;42.49
47785;BME280;35233;55.686;37.848;2023-02-16T00:52:37;100654.47;;;8.39;42.28
47785;BME280;35233;55.686;37.848;2023-02-16T00:55:06;100651.84;;;8.33;42.27
47785;BME280;35233;55.686;37.848;2023-02-16T00:57:35;100637.81;;;8.22;42.55
47785;BME280;35233;55.686;37.848;2023-02-16T01:00:39;100664.13;;;8.36;42.56
47785;BME280;35233;55.686;37.848;2023-02-16T01:03:15;100658.88;;;8.30;42.26
47785;BME280;35233;55.686;37.848;2023-02-16T01:05:41;100666.75;;;8.33;42.69
47785;BME280;35233;55.686;37.848;2023-02-16T01:08:12;100664.13;;;8.25;42.94
47785;BME280;35233;55.686;37.848;2023-02-16T01:10:57;100659.75;;;8.24;42.68
47785;BME280;35233;55.686;37.848;2023-02-16T01:13:54;100655.38;;;8.29;42.06
47785;BME280;35233;55.686;37.848;2023-02-16T01:16:40;100654.47;;;8.26;42.69
47785;BME280;35233;55.686;37.848;2023-02-16T01:19:06;100658.88;;;8.27;42.67
47785;BME280;35233;55.686;37.848;2023-02-16T01:21:31;100659.75;;;8.30;42.43
47785;BME280;35233;55.686;37.848;2023-02-16T01:23:57;100664.13;;;8.30;42.43
47785;BME280;35233;55.686;37.848;2023-02-16T01:26:22;100668.53;;;8.29;42.76
47785;BME280;35233;55.686;37.848;2023-02-16T01:28:48;100661.50;;;8.30;42.83
47785;BME280;35233;55.686;37.848;2023-02-16T01:31:14;100665.00;;;8.26;42.49
47785;BME280;35233;55.686;37.848;2023-02-16T01:33:42;100671.16;;;8.32;42.51
47785;BME280;35233;55.686;37.848;2023-02-16T01:36:29;100662.38;;;8.29;43.00
47785;BME280;35233;55.686;37.848;2023-02-16T01:38:56;100668.53;;;8.25;42.64
47785;BME280;35233;55.686;37.848;2023-02-16T01:44:36;100672.88;;;8.32;42.52
47785;BME280;35233;55.686;37.848;2023-02-16T01:49:45;100676.44;;;8.22;42.66
47785;BME280;35233;55.686;37.848;2023-02-16T01:54:48;100672.06;;;8.27;42.71
47785;BME280;35233;55.686;37.848;2023-02-16T02:02:55;100669.44;;;8.21;42.59
47785;BME280;35233;55.686;37.848;2023-02-16T02:05:46;100676.44;;;8.23;42.72
47785;BME280;35233;55.686;37.848;2023-02-16T02:08:31;100674.66;;;8.33;42.19
47785;BME280;35233;55.686;37.848;2023-02-16T02:16:20;100672.06;;;8.24;42.07
47785;BME280;35233;55.686;37.848;2023-02-16T02:18:47;100658.91;;;8.16;42.68
47785;BME280;35233;55.686;37.848;2023-02-16T02:43:22;100663.28;;;8.19;42.73
47785;BME280;35233;55.686;37.848;2023-02-16T02:46:00;100663.25;;;8.20;42.44
47785;BME280;35233;55.686;37.848;2023-02-16T02:48:32;100667.66;;;8.24;42.35
47785;BME280;35233;55.686;37.848;2023-02-16T02:53:51;100661.53;;;8.18;42.29
47785;BME280;35233;55.686;37.848;2023-02-16T02:56:36;100665.03;;;8.13;42.13
47785;BME280;35233;55.686;37.848;2023-02-16T02:59:22;100668.56;;;8.15;42.36
47785;BME280;35233;55.686;37.848;2023-02-16T03:02:08;100664.16;;;8.19;43.00
47785;BME280;35233;55.686;37.848;2023-02-16T03:04:33;100656.28;;;8.14;42.38
47785;BME280;35233;55.686;37.848;2023-02-16T03:07:00;100667.69;;;8.18;42.77
47785;BME280;35233;55.686;37.848;2023-02-16T03:09:26;100668.53;;;8.22;42.43
47785;BME280;35233;55.686;37.848;2023-02-16T03:11:53;100674.69;;;8.27;42.53
47785;BME280;35233;55.686;37.848;2023-02-16T03:17:12;100668.53;;;8.25;42.30
47785;BME280;35233;55.686;37.848;2023-02-16T03:20:00;100680.84;;;8.18;42.61
47785;BME280;35233;55.686;37.848;2023-02-16T03:22:46;100680.81;;;8.20;42.83
47785;BME280;35233;55.686;37.848;2023-02-16T03:25:32;100675.56;;;8.23;42.79
47785;BME280;35233;55.686;37.848;2023-02-16T03:28:20;100665.91;;;8.19;42.32
47785;BME280;35233;55.686;37.848;2023-02-16T03:31:07;100677.34;;;8.18;42.69
47785;BME280;35233;55.686;37.848;2023-02-16T03:33:35;100681.72;;;8.23;42.45
47785;BME280;35233;55.686;37.848;2023-02-16T03:36:01;100683.47;;;8.13;42.50
47785;BME280;35233;55.686;37.848;2023-02-16T03:38:27;100682.59;;;8.18;42.84
47785;BME280;35233;55.686;37.848;2023-02-16T03:40:53;100672.97;;;8.06;42.66
47785;BME280;35233;55.686;37.848;2023-02-16T03:43:18;100673.81;;;8.14;42.26
47785;BME280;35233;55.686;37.848;2023-02-16T03:45:48;100663.31;;;8.12;42.49
47785;BME280;35233;55.686;37.848;2023-02-16T03:48:14;100664.19;;;8.10;42.74
47785;BME280;35233;55.686;37.848;2023-02-16T03:50:39;100661.53;;;8.24;41.97
47785;BME280;35233;55.686;37.848;2023-02-16T03:53:05;100668.56;;;8.15;42.38
47785;BME280;35233;55.686;37.848;2023-02-16T03:55:41;100669.44;;;8.14;42.02
47785;BME280;35233;55.686;37.848;2023-02-16T03:58:09;100660.66;;;8.17;42.14
47785;BME280;35233;55.686;37.848;2023-02-16T04:00:35;100665.91;;;8.17;42.56
47785;BME280;35233;55.686;37.848;2023-02-16T04:03:02;100658.03;;;8.09;42.44
47785;BME280;35233;55.686;37.848;2023-02-16T04:05:27;100667.66;;;8.16;42.15
47785;BME280;35233;55.686;37.848;2023-02-16T04:07:53;100666.78;;;8.11;42.30
47785;BME280;35233;55.686;37.848;2023-02-16T04:10:19;100648.38;;;8.08;42.55
47785;BME280;35233;55.686;37.848;2023-02-16T04:12:44;100649.28;;;8.01;42.40
47785;BME280;35233;55.686;37.848;2023-02-16T04:15:13;100654.53;;;8.04;42.45
47785;BME280;35233;55.686;37.848;2023-02-16T04:17:38;100642.28;;;7.99;42.21
47785;BME280;35233;55.686;37.848;2023-02-16T04:20:05;100653.66;;;8.05;41.94
47785;BME280;35233;55.686;37.848;2023-02-16T04:22:31;100658.03;;;8.15;41.91
47785;BME280;35233;55.686;37.848;2023-02-16T04:24:56;100666.81;;;8.07;42.26
47785;BME280;35233;55.686;37.848;2023-02-16T04:27:22;100665.06;;;8.09;42.47
47785;BME280;35233;55.686;37.848;2023-02-16T04:29:47;100664.16;;;8.08;42.12
47785;BME280;35233;55.686;37.848;2023-02-16T04:32:13;100645.75;;;8.08;42.37
47785;BME280;35233;55.686;37.848;2023-02-16T04:34:38;100638.75;;;8.04;42.03
47785;BME280;35233;55.686;37.848;2023-02-16T04:37:04;100644.47;;;9.12;42.15
47785;BME280;35233;55.686;37.848;2023-02-16T04:39:30;100657.88;;;8.74;42.33
47785;BME280;35233;55.686;37.848;2023-02-16T04:41:56;100651.78;;;8.52;43.24
47785;BME280;35233;55.686;37.848;2023-02-16T04:44:21;100657.09;;;8.33;43.39
47785;BME280;35233;55.686;37.848;2023-02-16T04:46:47;100658.88;;;8.44;43.60
47785;BME280;35233;55.686;37.848;2023-02-16T04:49:12;100667.63;;;8.43;43.23
47785;BME280;35233;55.686;37.848;2023-02-16T04:51:38;100657.09;;;8.43;43.41
47785;BME280;35233;55.686;37.848;2023-02-16T04:54:05;100673.78;;;8.43;43.50
47785;BME280;35233;55.686;37.848;2023-02-16T04:56:30;100662.38;;;8.38;43.62
47785;BME280;35233;55.686;37.848;2023-02-16T04:58:56;100657.09;;;8.32;43.62
47785;BME280;35233;55.686;37.848;2023-02-16T05:01:23;100660.63;;;8.40;43.86
47785;BME280;35233;55.686;37.848;2023-02-16T05:03:49;100661.50;;;8.39;44.18
47785;BME280;35233;55.686;37.848;2023-02-16T05:06:15;100638.72;;;8.24;43.99
47785;BME280;35233;55.686;37.848;2023-02-16T05:08:41;100649.19;;;8.29;44.07
47785;BME280;35233;55.686;37.848;2023-02-16T05:11:06;100660.59;;;8.43;44.27
47785;BME280;35233;55.686;37.848;2023-02-16T05:13:50;100650.94;;;8.37;44.62
47785;BME280;35233;55.686;37.848;2023-02-16T05:16:34;100665.00;;;8.47;44.39
47785;BME280;35233;55.686;37.848;2023-02-16T05:19:00;100664.97;;;8.46;44.11
47785;BME280;35233;55.686;37.848;2023-02-16T05:21:25;100667.63;;;8.43;43.95
47785;BME280;35233;55.686;37.848;2023-02-16T05:24:02;100676.44;;;8.38;44.06
47785;BME280;35233;55.686;37.848;2023-02-16T05:26:28;100671.13;;;8.46;44.19
47785;BME280;35233;55.686;37.848;2023-02-16T05:28:54;100669.38;;;8.34;44.34
47785;BME280;35233;55.686;37.848;2023-02-16T05:31:21;100665.00;;;8.36;44.34
47785;BME280;35233;55.686;37.848;2023-02-16T05:33:46;100671.13;;;8.46;44.06
47785;BME280;35233;55.686;37.848;2023-02-16T05:36:12;100660.63;;;8.31;44.09
47785;BME280;35233;55.686;37.848;2023-02-16T05:38:37;100662.38;;;8.44;44.14
47785;BME280;35233;55.686;37.848;2023-02-16T05:41:03;100661.50;;;8.42;43.57
47785;BME280;35233;55.686;37.848;2023-02-16T05:43:29;100659.69;;;8.52;43.90
47785;BME280;35233;55.686;37.848;2023-02-16T05:45:54;100665.81;;;8.57;43.80
47785;BME280;35233;55.686;37.848;2023-02-16T05:48:20;100664.09;;;8.51;43.91
47785;BME280;35233;55.686;37.848;2023-02-16T05:50:45;100674.63;;;8.54;43.70
47785;BME280;35233;55.686;37.848;2023-02-16T05:53:11;100665.84;;;8.55;43.65
47785;BME280;35233;55.686;37.848;2023-02-16T05:55:36;100658.88;;;8.42;43.63
47785;BME280;35233;55.686;37.848;2023-02-16T05:58:02;100672.84;;;8.56;43.74
47785;BME280;35233;55.686;37.848;2023-02-16T06:00:28;100656.19;;;8.51;43.67
47785;BME280;35233;55.686;37.848;2023-02-16T06:02:58;100663.22;;;8.55;43.63
47785;BME280;35233;55.686;37.848;2023-02-16T06:05:24;100653.50;;;8.60;43.92
47785;BME280;35233;55.686;37.848;2023-02-16T06:07:49;100656.16;;;8.60;43.80
47785;BME280;35233;55.686;37.848;2023-02-16T06:10:15;100656.13;;;8.64;43.59
47785;BME280;35233;55.686;37.848;2023-02-16T06:12:41;100663.19;;;8.65;43.64
47785;BME280;35233;55.686;37.848;2023-02-16T06:15:07;100660.50;;;8.71;43.60
47785;BME280;35233;55.686;37.848;2023-02-16T06:17:33;100666.63;;;8.74;43.42
47785;BME280;35233;55.686;37.848;2023-02-16T06:19:58;100666.66;;;8.73;43.49
47785;BME280;35233;55.686;37.848;2023-02-16T06:22:24;100660.50;;;8.74;43.79
47785;BME280;35233;55.686;37.848;2023-02-16T06:24:49;100670.13;;;8.78;43.55
47785;BME280;35233;55.686;37.848;2023-02-16T06:27:14;100674.53;;;8.79;44.00
47785;BME280;35233;55.686;37.848;2023-02-16T06:29:40;100671.00;;;8.77;43.59
47785;BME280;35233;55.686;37.848;2023-02-16T06:32:05;100663.13;;;8.77;43.94
47785;BME280;35233;55.686;37.848;2023-02-16T06:34:31;100664.88;;;8.79;43.57
47785;BME280;35233;55.686;37.848;2023-02-16T06:36:57;100657.84;;;8.75;43.61
47785;BME280;35233;55.686;37.848;2023-02-16T06:39:22;100669.22;;;8.83;43.87
47785;BME280;35233;55.686;37.848;2023-02-16T06:41:47;100663.03;;;8.89;43.41
47785;BME280;35233;55.686;37.848;2023-02-16T06:44:14;100622.78;;;8.63;43.75
47785;BME280;35233;55.686;37.848;2023-02-16T06:46:41;100641.13;;;8.81;43.47
47785;BME280;35233;55.686;37.848;2023-02-16T06:49:11;100658.66;;;8.90;43.85
47785;BME280;35233;55.686;37.848;2023-02-16T06:51:37;100648.97;;;8.96;43.25
47785;BME280;35233;55.686;37.848;2023-02-16T06:54:03;100661.22;;;9.05;43.38
47785;BME280;35233;55.686;37.848;2023-02-16T06:56:28;100663.84;;;9.05;43.45
47785;BME280;35233;55.686;37.848;2023-02-16T06:58:54;100652.41;;;9.11;43.18
47785;BME280;35233;55.686;37.848;2023-02-16T07:01:19;100649.81;;;8.98;43.35
47785;BME280;35233;55.686;37.848;2023-02-16T07:03:53;100666.50;;;9.05;43.17
47785;BME280;35233;55.686;37.848;2023-02-16T07:06:20;100655.03;;;9.11;43.18
47785;BME280;35233;55.686;37.848;2023-02-16T07:08:46;100655.03;;;9.11;43.12
47785;BME280;35233;55.686;37.848;2023-02-16T07:11:12;100634.81;;;9.10;42.99
47785;BME280;35233;55.686;37.848;2023-02-16T07:13:38;100650.56;;;9.19;42.93
47785;BME280;35233;55.686;37.848;2023-02-16T07:16:05;100646.19;;;9.19;43.03
47785;BME280;35233;55.686;37.848;2023-02-16T07:18:31;100653.19;;;9.22;42.88
47785;BME280;35233;55.686;37.848;2023-02-16T07:20:58;100651.41;;;9.25;42.79
47785;BME280;35233;55.686;37.848;2023-02-16T07:23:24;100630.34;;;9.21;42.67
47785;BME280;35233;55.686;37.848;2023-02-16T07:25:49;100647.81;;;9.36;42.48
47785;BME280;35233;55.686;37.848;2023-02-16T07:28:15;100650.44;;;9.36;42.68
47785;BME280;35233;55.686;37.848;2023-02-16T07:30:40;100651.31;;;9.36;42.38
47785;BME280;35233;55.686;37.848;2023-02-16T07:33:06;100641.66;;;9.35;42.49
47785;BME280;35233;55.686;37.848;2023-02-16T07:35:35;100648.72;;;9.33;42.51
47785;BME280;35233;55.686;37.848;2023-02-16T07:38:03;100650.44;;;9.36;42.48
47785;BME280;35233;55.686;37.848;2023-02-16T07:40:29;100648.63;;;9.42;42.41
47785;BME280;35233;55.686;37.848;2023-02-16T07:42:58;100647.78;;;9.43;42.37
47785;BME280;35233;55.686;37.848;2023-02-16T07:45:24;100650.34;;;9.49;42.27
47785;BME280;35233;55.686;37.848;2023-02-16T07:47:50;100643.31;;;9.51;42.45
47785;BME280;35233;55.686;37.848;2023-02-16T07:50:15;100645.06;;;9.51;42.45
47785;BME280;35233;55.686;37.848;2023-02-16T07:52:41;100637.13;;;9.51;42.36
47785;BME280;35233;55.686;37.848;2023-02-16T07:55:07;100633.69;;;9.46;42.39
47785;BME280;35233;55.686;37.848;2023-02-16T07:57:32;100637.16;;;9.48;42.31
47785;BME280;35233;55.686;37.848;2023-02-16T07:59:58;100649.38;;;9.60;42.40
47785;BME280;35233;55.686;37.848;2023-02-16T08:02:23;100649.41;;;9.58;42.50
47785;BME280;35233;55.686;37.848;2023-02-16T08:04:51;100642.41;;;9.57;42.58
47785;BME280;35233;55.686;37.848;2023-02-16T08:07:18;100643.31;;;9.51;42.48
47785;BME280;35233;55.686;37.848;2023-02-16T08:09:44;100645.03;;;9.56;42.68
47785;BME280;35233;55.686;37.848;2023-02-16T08:12:11;100631.88;;;9.51;42.24
47785;BME280;35233;55.686;37.848;2023-02-16T08:14:37;100640.66;;;9.55;42.42
47785;BME280;35233;55.686;37.848;2023-02-16T08:17:03;100644.13;;;9.58;42.40
47785;BME280;35233;55.686;37.848;2023-02-16T08:19:29;100635.28;;;9.62;42.16
47785;BME280;35233;55.686;37.848;2023-02-16T08:21:59;100646.75;;;9.61;42.37
47785;BME280;35233;55.686;37.848;2023-02-16T08:24:27;100647.66;;;9.60;42.37
47785;BME280;35233;55.686;37.848;2023-02-16T08:26:53;100647.63;;;9.63;42.23
47785;BME280;35233;55.686;37.848;2023-02-16T08:29:21;100644.06;;;9.67;42.19
47785;BME280;35233;55.686;37.848;2023-02-16T08:31:47;100639.59;;;9.74;42.25
47785;BME280;35233;55.686;37.848;2023-02-16T08:34:18;100640.44;;;9.76;42.00
47785;BME280;35233;55.686;37.848;2023-02-16T08:36:46;100646.56;;;9.81;42.35
47785;BME280;35233;55.686;37.848;2023-02-16T08:39:17;100649.19;;;9.84;41.99
47785;BME280;35233;55.686;37.848;2023-02-16T08:41:44;100627.22;;;9.81;42.05
47785;BME280;35233;55.686;37.848;2023-02-16T08:44:11;100624.59;;;9.79;42.14
47785;BME280;35233;55.686;37.848;2023-02-16T08:46:39;100629.78;;;9.90;42.10
47785;BME280;35233;55.686;37.848;2023-02-16T08:49:06;100638.56;;;9.90;42.11
47785;BME280;35233;55.686;37.848;2023-02-16T08:51:34;100626.31;;;9.80;42.26
47785;BME280;35233;55.686;37.848;2023-02-16T08:54:02;100633.28;;;9.92;42.11
47785;BME280;35233;55.686;37.848;2023-02-16T08:56:28;100629.78;;;9.88;41.83
47785;BME280;35233;55.686;37.848;2023-02-16T08:58:55;100629.81;;;9.87;41.96
47785;BME280;35233;55.686;37.848;2023-02-16T09:01:20;100637.72;;;9.85;42.09
47785;BME280;35233;55.686;37.848;2023-02-16T09:03:48;100628.94;;;9.86;42.23
47785;BME280;35233;55.686;37.848;2023-02-16T09:06:16;100628.94;;;9.86;42.11
47785;BME280;35233;55.686;37.848;2023-02-16T09:08:42;100627.13;;;9.88;42.01
47785;BME280;35233;55.686;37.848;2023-02-16T09:11:12;100628.94;;;9.86;42.18
47785;BME280;35233;55.686;37.848;2023-02-16T09:13:38;100630.75;;;9.81;42.20
47785;BME280;35233;55.686;37.848;2023-02-16T09:16:39;100631.59;;;9.80;41.86
47785;BME280;35233;55.686;37.848;2023-02-16T09:19:04;100620.16;;;9.84;42.15
47785;BME280;35233;55.686;37.848;2023-02-16T09:21:30;100624.53;;;9.87;42.00
47785;BME280;35233;55.686;37.848;2023-02-16T09:23:57;100630.69;;;9.86;42.16
47785;BME280;35233;55.686;37.848;2023-02-16T09:26:24;100627.19;;;9.82;42.25
47785;BME280;35233;55.686;37.848;2023-02-16T09:28:50;100619.22;;;9.88;41.93
47785;BME280;35233;55.686;37.848;2023-02-16T09:31:24;100622.72;;;9.90;41.86
47785;BME280;35233;55.686;37.848;2023-02-16T09:34:05;100609.72;;;9.72;41.94
47785;BME280;35233;55.686;37.848;2023-02-16T09:36:32;100628.09;;;9.81;42.13
47785;BME280;35233;55.686;37.848;2023-02-16T09:38:58;100627.19;;;9.84;42.09
47785;BME280;35233;55.686;37.848;2023-02-16T09:46:42;100614.88;;;9.84;41.91
47785;BME280;35233;55.686;37.848;2023-02-16T09:49:39;100626.25;;;9.89;41.79
47785;BME280;35233;55.686;37.848;2023-02-16T09:52:42;100618.38;;;9.86;41.63
47785;BME280;35233;55.686;37.848;2023-02-16T09:55:01;100615.75;;;9.86;41.50
47785;BME280;35233;55.686;37.848;2023-02-16T10:03:19;100619.28;;;9.84;41.56
47785;BME280;35233;55.686;37.848;2023-02-16T10:08:48;100614.84;;;9.87;41.46
47785;BME280;35233;55.686;37.848;2023-02-16T10:16:51;100616.47;;;9.97;41.56
47785;BME280;35233;55.686;37.848;2023-02-16T10:22:05;100615.63;;;9.97;41.37
47785;BME280;35233;55.686;37.848;2023-02-16T10:24:42;100605.00;;;10.00;41.23
47785;BME280;35233;55.686;37.848;2023-02-16T10:27:14;100612.88;;;10.08;41.31
47785;BME280;35233;55.686;37.848;2023-02-16T10:29:40;100615.50;;;10.08;41.18
47785;BME280;35233;55.686;37.848;2023-02-16T10:35:48;100616.34;;;10.13;41.04
47785;BME280;35233;55.686;37.848;2023-02-16T10:38:26;100611.94;;;10.13;41.08
47785;BME280;35233;55.686;37.848;2023-02-16T10:43:50;100611.84;;;10.19;40.68
47785;BME280;35233;55.686;37.848;2023-02-16T10:46:25;100602.16;;;10.20;40.82
47785;BME280;35233;55.686;37.848;2023-02-16T10:48:54;100590.78;;;10.15;41.03
47785;BME280;35233;55.686;37.848;2023-02-16T10:51:22;100589.03;;;10.15;41.09
47785;BME280;35233;55.686;37.848;2023-02-16T10:53:55;100596.88;;;10.20;41.28
47785;BME280;35233;55.686;37.848;2023-02-16T10:56:50;100597.84;;;10.13;41.30
47785;BME280;35233;55.686;37.848;2023-02-16T10:59:27;100592.63;;;10.10;40.86
47785;BME280;35233;55.686;37.848;2023-02-16T11:01:59;100596.94;;;10.15;41.25
47785;BME280;35233;55.686;37.848;2023-02-16T11:04:38;100590.81;;;10.13;41.31
47785;BME280;35233;55.686;37.848;2023-02-16T11:07:08;100598.69;;;10.15;41.18
47785;BME280;35233;55.686;37.848;2023-02-16T11:09:35;100596.00;;;10.19;40.94
47785;BME280;35233;55.686;37.848;2023-02-16T11:12:12;100582.97;;;10.07;40.88
47785;BME280;35233;55.686;37.848;2023-02-16T11:14:39;100589.88;;;10.17;41.10
47785;BME280;35233;55.686;37.848;2023-02-16T11:17:13;100577.59;;;10.13;40.80
47785;BME280;35233;55.686;37.848;2023-02-16T11:19:49;100589.81;;;10.22;40.75
47785;BME280;35233;55.686;37.848;2023-02-16T11:22:32;100587.22;;;10.19;40.97
47785;BME280;35233;55.686;37.848;2023-02-16T11:30:18;100573.22;;;10.12;40.70
47785;BME280;35233;55.686;37.848;2023-02-16T11:32:50;100585.44;;;10.19;40.82
47785;BME280;35233;55.686;37.848;2023-02-16T11:35:16;100573.22;;;10.09;40.73
47785;BME280;35233;55.686;37.848;2023-02-16T11:37:42;100573.22;;;10.11;40.80
47785;BME280;35233;55.686;37.848;2023-02-16T11:40:21;100583.69;;;10.22;40.67
47785;BME280;35233;55.686;37.848;2023-02-16T11:42:52;100571.34;;;10.20;40.50
47785;BME280;35233;55.686;37.848;2023-02-16T11:45:33;100577.53;;;10.18;40.25
47785;BME280;35233;55.686;37.848;2023-02-16T11:48:10;100587.22;;;10.19;40.74
47785;BME280;35233;55.686;37.848;2023-02-16T11:50:39;100581.06;;;10.17;40.80
47785;BME280;35233;55.686;37.848;2023-02-16T11:55:37;100585.44;;;10.19;40.48
47785;BME280;35233;55.686;37.848;2023-02-16T11:58:25;100584.59;;;10.19;40.82
47785;BME280;35233;55.686;37.848;2023-02-16T12:09:46;100574.97;;;10.13;40.69
47785;BME280;35233;55.686;37.848;2023-02-16T12:11:58;100582.84;;;10.15;40.80
47785;BME280;35233;55.686;37.848;2023-02-16T12:14:41;100575.81;;;10.15;40.66
47785;BME280;35233;55.686;37.848;2023-02-16T12:17:32;100577.59;;;10.12;40.97
47785;BME280;35233;55.686;37.848;2023-02-16T12:22:46;100574.09;;;10.13;41.23
47785;BME280;35233;55.686;37.848;2023-02-16T12:30:51;100576.69;;;10.14;40.60
47785;BME280;35233;55.686;37.848;2023-02-16T12:36:50;100581.06;;;10.18;40.65
47785;BME280;35233;55.686;37.848;2023-02-16T12:39:33;100582.84;;;10.15;40.77
47785;BME280;35233;55.686;37.848;2023-02-16T12:44:49;100581.06;;;10.17;40.64
47785;BME280;35233;55.686;37.848;2023-02-16T12:47:26;100568.00;;;10.08;40.95
47785;BME280;35233;55.686;37.848;2023-02-16T12:52:36;100578.50;;;10.09;40.83
47785;BME280;35233;55.686;37.848;2023-02-16T12:55:17;100581.19;;;10.08;40.99
47785;BME280;35233;55.686;37.848;2023-02-16T13:00:43;100578.53;;;10.08;40.96
47785;BME280;35233;55.686;37.848;2023-02-16T13:08:44;100591.78;;;10.05;40.85
47785;BME280;35233;55.686;37.848;2023-02-16T13:11:22;100588.28;;;10.03;40.60
47785;BME280;35233;55.686;37.848;2023-02-16T13:13:51;100578.66;;;9.97;40.58
47785;BME280;35233;55.686;37.848;2023-02-16T13:16:25;100576.84;;;10.04;40.54
47785;BME280;35233;55.686;37.848;2023-02-16T13:18:54;100579.56;;;9.94;40.67
47785;BME280;35233;55.686;37.848;2023-02-16T13:24:31;100584.00;;;9.91;40.80
47785;BME280;35233;55.686;37.848;2023-02-16T13:29:54;100592.84;;;9.85;40.62
47785;BME280;35233;55.686;37.848;2023-02-16T13:35:11;100580.53;;;9.86;41.02
47785;BME280;35233;55.686;37.848;2023-02-16T13:45:45;100587.63;;;9.82;40.64
47785;BME280;35233;55.686;37.848;2023-02-16T13:48:38;100581.53;;;9.74;40.92
47785;BME280;35233;55.686;37.848;2023-02-16T13:51:09;100583.28;;;9.78;40.79
47785;BME280;35233;55.686;37.848;2023-02-16T13:53:38;100577.13;;;9.76;40.67
47785;BME280;35233;55.686;37.848;2023-02-16T13:56:18;100592.09;;;9.74;41.02
47785;BME280;35233;55.686;37.848;2023-02-16T13:58:47;100588.59;;;9.73;40.68
47785;BME280;35233;55.686;37.848;2023-02-16T14:03:59;100585.09;;;9.70;40.68
47785;BME280;35233;55.686;37.848;2023-02-16T14:16:52;100586.91;;;9.66;41.01
47785;BME280;35233;55.686;37.848;2023-02-16T14:19:23;100589.56;;;9.62;40.93
47785;BME280;35233;55.686;37.848;2023-02-16T14:21:52;100586.06;;;9.61;41.02
47785;BME280;35233;55.686;37.848;2023-02-16T14:24:34;100587.88;;;9.58;40.87
47785;BME280;35233;55.686;37.848;2023-02-16T14:27:08;100595.75;;;9.61;40.94
47785;BME280;35233;55.686;37.848;2023-02-16T14:29:42;100596.69;;;9.50;41.00
47785;BME280;35233;55.686;37.848;2023-02-16T14:32:27;100596.75;;;9.49;40.87
47785;BME280;35233;55.686;37.848;2023-02-16T14:35:03;100596.72;;;9.52;40.74
47785;BME280;35233;55.686;37.848;2023-02-16T14:37:37;100590.63;;;9.45;41.04
47785;BME280;35233;55.686;37.848;2023-02-16T14:40:20;100598.47;;;9.51;41.03
47785;BME280;35233;55.686;37.848;2023-02-16T14:42:55;100596.78;;;9.41;41.03
47785;BME280;35233;55.686;37.848;2023-02-16T15:01:26;100603.91;;;9.30;41.13
47785;BME280;35233;55.686;37.848;2023-02-16T15:03:54;100610.97;;;9.31;41.20
47785;BME280;35233;55.686;37.848;2023-02-16T15:06:33;100616.25;;;9.28;41.23
47785;BME280;35233;55.686;37.848;2023-02-16T15:09:05;100616.28;;;9.20;41.11
47785;BME280;35233;55.686;37.848;2023-02-16T15:11:41;100605.81;;;9.14;41.28
47785;BME280;35233;55.686;37.848;2023-02-16T15:14:27;100600.50;;;9.17;41.22
47785;BME280;35233;55.686;37.848;2023-02-16T15:16:56;100608.38;;;9.19;41.25
47785;BME280;35233;55.686;37.848;2023-02-16T15:19:29;100606.66;;;9.15;40.97
47785;BME280;35233;55.686;37.848;2023-02-16T15:22:09;100603.16;;;9.13;41.22
47785;BME280;35233;55.686;37.848;2023-02-16T15:24:42;100604.03;;;9.13;41.13
47785;BME280;35233;55.686;37.848;2023-02-16T15:27:19;100592.66;;;9.06;41.20
47785;BME280;35233;55.686;37.848;2023-02-16T15:29:45;100606.75;;;9.05;41.25
47785;BME280;35233;55.686;37.848;2023-02-16T15:32:14;100610.25;;;9.04;41.32
47785;BME280;35233;55.686;37.848;2023-02-16T15:34:42;100606.78;;;8.99;41.48
47785;BME280;35233;55.686;37.848;2023-02-16T15:37:22;100607.63;;;9.01;41.23
47785;BME280;35233;55.686;37.848;2023-02-16T15:39:52;100599.75;;;8.98;41.58
47785;BME280;35233;55.686;37.848;2023-02-16T15:42:27;100605.00;;;9.01;41.59
47785;BME280;35233;55.686;37.848;2023-02-16T15:44:54;100617.28;;;9.04;41.94
47785;BME280;35233;55.686;37.848;2023-02-16T15:47:23;100619.91;;;9.05;42.34
47785;BME280;35233;55.686;37.848;2023-02-16T15:49:51;100615.53;;;9.03;42.54
47785;BME280;35233;55.686;37.848;2023-02-16T15:52:34;100620.78;;;9.04;42.50